sensor_id;sensor_type;location;lat;lon;timestamp;P1;durP1;ratioP1;P2;durP2;ratioP2
8293;SDS011;4185;41.506;24.938;2023-08-21T00:00:40;6.63;;;4.57;;
8293;SDS011;4185;41.506;24.938;2023-08-21T00:03:07;5.50;;;4.03;;
8293;SDS011;4185;41.506;24.938;2023-08-21T00:05:34;4.77;;;4.00;;
8293;SDS011;4185;41.506;24.938;2023-08-21T00:08:00;5.17;;;3.73;;
8293;SDS011;4185;41.506;24.938;2023-08-21T00:10:27;4.60;;;3.87;;
8293;SDS011;4185;41.506;24.938;2023-08-21T00:12:58;5.80;;;3.90;;
8293;SDS011;4185;41.506;24.938;2023-08-21T00:15:25;4.40;;;4.00;;
8293;SDS011;4185;41.506;24.938;2023-08-21T00:17:51;4.67;;;4.20;;
8293;SDS011;4185;41.506;24.938;2023-08-21T00:20:18;4.10;;;3.70;;
8293;SDS011;4185;41.506;24.938;2023-08-21T00:22:45;4.63;;;3.90;;
8293;SDS011;4185;41.506;24.938;2023-08-21T00:25:12;5.33;;;4.00;;
8293;SDS011;4185;41.506;24.938;2023-08-21T00:27:39;6.40;;;3.83;;
8293;SDS011;4185;41.506;24.938;2023-08-21T00:30:08;5.20;;;3.90;;
8293;SDS011;4185;41.506;24.938;2023-08-21T00:32:35;5.57;;;4.00;;
8293;SDS011;4185;41.506;24.938;2023-08-21T00:35:02;4.30;;;3.90;;
8293;SDS011;4185;41.506;24.938;2023-08-21T00:37:30;6.27;;;3.73;;
8293;SDS011;4185;41.506;24.938;2023-08-21T00:39:56;4.27;;;3.80;;
8293;SDS011;4185;41.506;24.938;2023-08-21T00:42:23;7.57;;;4.40;;
8293;SDS011;4185;41.506;24.938;2023-08-21T00:44:50;5.43;;;4.00;;
8293;SDS011;4185;41.506;24.938;2023-08-21T00:47:18;4.60;;;4.10;;
8293;SDS011;4185;41.506;24.938;2023-08-21T00:49:45;4.67;;;3.93;;
8293;SDS011;4185;41.506;24.938;2023-08-21T00:52:12;3.80;;;3.47;;
8293;SDS011;4185;41.506;24.938;2023-08-21T00:54:41;5.07;;;3.80;;
8293;SDS011;4185;41.506;24.938;2023-08-21T00:57:08;6.23;;;3.70;;
8293;SDS011;4185;41.506;24.938;2023-08-21T00:59:36;4.37;;;3.63;;
8293;SDS011;4185;41.506;24.938;2023-08-21T01:02:03;4.93;;;4.00;;
8293;SDS011;4185;41.506;24.938;2023-08-21T01:04:31;5.13;;;3.87;;
8293;SDS011;4185;41.506;24.938;2023-08-21T01:06:58;7.00;;;4.10;;
8293;SDS011;4185;41.506;24.938;2023-08-21T01:09:27;4.27;;;3.87;;
8293;SDS011;4185;41.506;24.938;2023-08-21T01:11:58;4.20;;;3.80;;
8293;SDS011;4185;41.506;24.938;2023-08-21T01:14:36;6.53;;;3.50;;
8293;SDS011;4185;41.506;24.938;2023-08-21T01:17:09;5.63;;;3.87;;
8293;SDS011;4185;41.506;24.938;2023-08-21T01:19:42;5.70;;;4.30;;
8293;SDS011;4185;41.506;24.938;2023-08-21T01:22:12;5.40;;;3.73;;
8293;SDS011;4185;41.506;24.938;2023-08-21T01:24:40;5.07;;;4.00;;
8293;SDS011;4185;41.506;24.938;2023-08-21T01:27:07;4.27;;;3.87;;
8293;SDS011;4185;41.506;24.938;2023-08-21T01:29:34;5.57;;;4.00;;
8293;SDS011;4185;41.506;24.938;2023-08-21T01:32:03;6.87;;;3.90;;
8293;SDS011;4185;41.506;24.938;2023-08-21T01:34:34;4.53;;;3.77;;
8293;SDS011;4185;41.506;24.938;2023-08-21T01:37:03;3.87;;;3.57;;
8293;SDS011;4185;41.506;24.938;2023-08-21T01:39:31;6.60;;;4.03;;
8293;SDS011;4185;41.506;24.938;2023-08-21T01:42:00;5.77;;;4.03;;
8293;SDS011;4185;41.506;24.938;2023-08-21T01:44:26;4.90;;;4.23;;
8293;SDS011;4185;41.506;24.938;2023-08-21T01:46:53;4.73;;;3.80;;
8293;SDS011;4185;41.506;24.938;2023-08-21T01:49:20;6.63;;;4.40;;
8293;SDS011;4185;41.506;24.938;2023-08-21T01:51:47;4.83;;;3.67;;
8293;SDS011;4185;41.506;24.938;2023-08-21T01:54:14;6.10;;;3.57;;
8293;SDS011;4185;41.506;24.938;2023-08-21T01:56:40;4.43;;;3.90;;
8293;SDS011;4185;41.506;24.938;2023-08-21T01:59:08;4.47;;;3.97;;
8293;SDS011;4185;41.506;24.938;2023-08-21T02:01:35;6.63;;;3.93;;
8293;SDS011;4185;41.506;24.938;2023-08-21T02:04:02;4.87;;;4.23;;
8293;SDS011;4185;41.506;24.938;2023-08-21T02:06:29;4.87;;;4.17;;
8293;SDS011;4185;41.506;24.938;2023-08-21T02:08:56;4.93;;;3.63;;
8293;SDS011;4185;41.506;24.938;2023-08-21T02:11:22;4.53;;;4.07;;
8293;SDS011;4185;41.506;24.938;2023-08-21T02:13:49;5.77;;;3.90;;
8293;SDS011;4185;41.506;24.938;2023-08-21T02:16:17;3.93;;;3.60;;
8293;SDS011;4185;41.506;24.938;2023-08-21T02:18:45;3.93;;;3.53;;
8293;SDS011;4185;41.506;24.938;2023-08-21T02:21:12;6.30;;;4.07;;
8293;SDS011;4185;41.506;24.938;2023-08-21T02:23:39;4.83;;;3.97;;
8293;SDS011;4185;41.506;24.938;2023-08-21T02:26:05;5.77;;;4.13;;
8293;SDS011;4185;41.506;24.938;2023-08-21T02:28:32;6.17;;;3.73;;
8293;SDS011;4185;41.506;24.938;2023-08-21T02:30:59;4.50;;;3.90;;
8293;SDS011;4185;41.506;24.938;2023-08-21T02:33:27;5.27;;;4.00;;
8293;SDS011;4185;41.506;24.938;2023-08-21T02:35:54;4.87;;;3.63;;
8293;SDS011;4185;41.506;24.938;2023-08-21T02:38:21;5.77;;;4.13;;
8293;SDS011;4185;41.506;24.938;2023-08-21T02:40:48;4.60;;;4.20;;
8293;SDS011;4185;41.506;24.938;2023-08-21T02:43:14;4.20;;;3.80;;
8293;SDS011;4185;41.506;24.938;2023-08-21T02:45:42;4.33;;;3.83;;
8293;SDS011;4185;41.506;24.938;2023-08-21T02:48:09;4.50;;;3.87;;
8293;SDS011;4185;41.506;24.938;2023-08-21T02:50:37;5.20;;;3.53;;
8293;SDS011;4185;41.506;24.938;2023-08-21T02:53:04;4.67;;;4.10;;
8293;SDS011;4185;41.506;24.938;2023-08-21T02:55:30;4.37;;;3.97;;
8293;SDS011;4185;41.506;24.938;2023-08-21T02:57:57;6.17;;;4.30;;
8293;SDS011;4185;41.506;24.938;2023-08-21T03:00:24;4.57;;;3.83;;
8293;SDS011;4185;41.506;24.938;2023-08-21T03:02:51;4.33;;;3.63;;
8293;SDS011;4185;41.506;24.938;2023-08-21T03:05:17;4.73;;;4.13;;
8293;SDS011;4185;41.506;24.938;2023-08-21T03:07:46;4.30;;;3.90;;
8293;SDS011;4185;41.506;24.938;2023-08-21T03:10:13;6.17;;;3.80;;
8293;SDS011;4185;41.506;24.938;2023-08-21T03:12:40;4.77;;;3.77;;
8293;SDS011;4185;41.506;24.938;2023-08-21T03:15:07;6.27;;;4.50;;
8293;SDS011;4185;41.506;24.938;2023-08-21T03:17:34;4.57;;;4.17;;
8293;SDS011;4185;41.506;24.938;2023-08-21T03:20:01;7.03;;;3.83;;
8293;SDS011;4185;41.506;24.938;2023-08-21T03:22:29;4.67;;;3.50;;
8293;SDS011;4185;41.506;24.938;2023-08-21T03:24:58;5.80;;;4.00;;
8293;SDS011;4185;41.506;24.938;2023-08-21T03:27:25;4.87;;;3.87;;
8293;SDS011;4185;41.506;24.938;2023-08-21T03:29:52;5.97;;;3.93;;
8293;SDS011;4185;41.506;24.938;2023-08-21T03:32:18;6.40;;;3.90;;
8293;SDS011;4185;41.506;24.938;2023-08-21T03:34:45;4.53;;;3.43;;
8293;SDS011;4185;41.506;24.938;2023-08-21T03:37:12;8.20;;;4.00;;
8293;SDS011;4185;41.506;24.938;2023-08-21T03:39:39;4.57;;;3.73;;
8293;SDS011;4185;41.506;24.938;2023-08-21T03:42:07;4.87;;;3.97;;
8293;SDS011;4185;41.506;24.938;2023-08-21T03:44:34;4.63;;;4.00;;
8293;SDS011;4185;41.506;24.938;2023-08-21T03:47:01;6.00;;;4.13;;
8293;SDS011;4185;41.506;24.938;2023-08-21T03:49:27;5.50;;;3.93;;
8293;SDS011;4185;41.506;24.938;2023-08-21T03:51:54;5.90;;;3.90;;
8293;SDS011;4185;41.506;24.938;2023-08-21T03:54:21;4.43;;;3.77;;
8293;SDS011;4185;41.506;24.938;2023-08-21T03:56:48;4.60;;;3.60;;
8293;SDS011;4185;41.506;24.938;2023-08-21T03:59:16;4.20;;;3.70;;
8293;SDS011;4185;41.506;24.938;2023-08-21T04:01:43;5.80;;;3.90;;
8293;SDS011;4185;41.506;24.938;2023-08-21T04:04:09;7.80;;;3.87;;
8293;SDS011;4185;41.506;24.938;2023-08-21T04:06:36;6.50;;;4.00;;
8293;SDS011;4185;41.506;24.938;2023-08-21T04:09:03;6.40;;;4.43;;
8293;SDS011;4185;41.506;24.938;2023-08-21T04:11:31;7.37;;;4.40;;
8293;SDS011;4185;41.506;24.938;2023-08-21T04:13:58;8.97;;;5.33;;
8293;SDS011;4185;41.506;24.938;2023-08-21T04:16:27;11.53;;;6.90;;
8293;SDS011;4185;41.506;24.938;2023-08-21T04:18:55;14.67;;;10.50;;
8293;SDS011;4185;41.506;24.938;2023-08-21T04:21:22;11.47;;;7.83;;
8293;SDS011;4185;41.506;24.938;2023-08-21T04:23:49;7.80;;;5.27;;
8293;SDS011;4185;41.506;24.938;2023-08-21T04:26:16;7.10;;;4.93;;
8293;SDS011;4185;41.506;24.938;2023-08-21T04:28:42;5.83;;;4.53;;
8293;SDS011;4185;41.506;24.938;2023-08-21T04:31:09;10.43;;;5.43;;
8293;SDS011;4185;41.506;24.938;2023-08-21T04:33:37;5.37;;;4.10;;
8293;SDS011;4185;41.506;24.938;2023-08-21T04:36:04;6.77;;;4.30;;
8293;SDS011;4185;41.506;24.938;2023-08-21T04:38:31;4.60;;;4.20;;
8293;SDS011;4185;41.506;24.938;2023-08-21T04:41:05;4.60;;;3.77;;
8293;SDS011;4185;41.506;24.938;2023-08-21T04:43:32;4.50;;;3.83;;
8293;SDS011;4185;41.506;24.938;2023-08-21T04:45:59;5.83;;;4.03;;
8293;SDS011;4185;41.506;24.938;2023-08-21T04:48:26;4.97;;;3.93;;
8293;SDS011;4185;41.506;24.938;2023-08-21T04:50:54;5.00;;;3.80;;
8293;SDS011;4185;41.506;24.938;2023-08-21T04:53:21;4.10;;;3.63;;
8293;SDS011;4185;41.506;24.938;2023-08-21T04:55:48;4.73;;;4.17;;
8293;SDS011;4185;41.506;24.938;2023-08-21T04:58:15;5.60;;;4.40;;
8293;SDS011;4185;41.506;24.938;2023-08-21T05:00:44;4.07;;;3.30;;
8293;SDS011;4185;41.506;24.938;2023-08-21T05:03:10;4.47;;;4.07;;
8293;SDS011;4185;41.506;24.938;2023-08-21T05:05:37;5.13;;;3.93;;
8293;SDS011;4185;41.506;24.938;2023-08-21T05:08:06;5.10;;;3.93;;
8293;SDS011;4185;41.506;24.938;2023-08-21T05:10:33;6.70;;;4.40;;
8293;SDS011;4185;41.506;24.938;2023-08-21T05:12:59;6.43;;;4.13;;
8293;SDS011;4185;41.506;24.938;2023-08-21T05:15:27;6.23;;;4.27;;
8293;SDS011;4185;41.506;24.938;2023-08-21T05:17:53;9.90;;;4.00;;
8293;SDS011;4185;41.506;24.938;2023-08-21T05:20:20;6.80;;;4.57;;
8293;SDS011;4185;41.506;24.938;2023-08-21T05:22:47;6.83;;;4.20;;
8293;SDS011;4185;41.506;24.938;2023-08-21T05:25:15;5.60;;;4.00;;
8293;SDS011;4185;41.506;24.938;2023-08-21T05:27:42;5.60;;;4.37;;
8293;SDS011;4185;41.506;24.938;2023-08-21T05:30:09;6.53;;;4.73;;
8293;SDS011;4185;41.506;24.938;2023-08-21T05:32:38;8.50;;;5.90;;
8293;SDS011;4185;41.506;24.938;2023-08-21T05:35:05;7.37;;;4.90;;
8293;SDS011;4185;41.506;24.938;2023-08-21T05:37:33;5.90;;;4.70;;
8293;SDS011;4185;41.506;24.938;2023-08-21T05:40:00;9.37;;;5.00;;
8293;SDS011;4185;41.506;24.938;2023-08-21T05:42:30;11.63;;;5.20;;
8293;SDS011;4185;41.506;24.938;2023-08-21T05:44:56;8.60;;;4.47;;
8293;SDS011;4185;41.506;24.938;2023-08-21T05:47:23;5.23;;;4.53;;
8293;SDS011;4185;41.506;24.938;2023-08-21T05:49:52;10.27;;;5.10;;
8293;SDS011;4185;41.506;24.938;2023-08-21T05:52:19;6.57;;;4.57;;
8293;SDS011;4185;41.506;24.938;2023-08-21T05:54:47;7.20;;;4.70;;
8293;SDS011;4185;41.506;24.938;2023-08-21T05:57:14;6.57;;;4.87;;
8293;SDS011;4185;41.506;24.938;2023-08-21T05:59:44;6.73;;;4.47;;
8293;SDS011;4185;41.506;24.938;2023-08-21T06:02:12;10.13;;;4.67;;
8293;SDS011;4185;41.506;24.938;2023-08-21T06:04:40;7.67;;;4.63;;
8293;SDS011;4185;41.506;24.938;2023-08-21T06:07:07;7.80;;;4.50;;
8293;SDS011;4185;41.506;24.938;2023-08-21T06:09:34;6.03;;;4.27;;
8293;SDS011;4185;41.506;24.938;2023-08-21T06:12:01;9.00;;;4.40;;
8293;SDS011;4185;41.506;24.938;2023-08-21T06:14:28;7.37;;;4.27;;
8293;SDS011;4185;41.506;24.938;2023-08-21T06:16:57;6.33;;;4.23;;
8293;SDS011;4185;41.506;24.938;2023-08-21T06:19:25;8.33;;;4.83;;
8293;SDS011;4185;41.506;24.938;2023-08-21T06:21:51;7.33;;;4.33;;
8293;SDS011;4185;41.506;24.938;2023-08-21T06:24:18;6.33;;;4.40;;
8293;SDS011;4185;41.506;24.938;2023-08-21T06:26:45;5.53;;;4.40;;
8293;SDS011;4185;41.506;24.938;2023-08-21T06:29:12;9.27;;;4.73;;
8293;SDS011;4185;41.506;24.938;2023-08-21T06:31:39;6.57;;;4.77;;
8293;SDS011;4185;41.506;24.938;2023-08-21T06:34:07;7.10;;;5.00;;
8293;SDS011;4185;41.506;24.938;2023-08-21T06:36:34;7.03;;;4.67;;
8293;SDS011;4185;41.506;24.938;2023-08-21T06:39:00;9.27;;;5.00;;
8293;SDS011;4185;41.506;24.938;2023-08-21T06:41:27;6.50;;;4.90;;
8293;SDS011;4185;41.506;24.938;2023-08-21T06:43:54;6.23;;;4.77;;
8293;SDS011;4185;41.506;24.938;2023-08-21T06:46:22;7.90;;;5.00;;
8293;SDS011;4185;41.506;24.938;2023-08-21T06:48:49;6.47;;;4.47;;
8293;SDS011;4185;41.506;24.938;2023-08-21T06:51:17;7.40;;;4.77;;
8293;SDS011;4185;41.506;24.938;2023-08-21T06:53:44;7.30;;;4.50;;
8293;SDS011;4185;41.506;24.938;2023-08-21T06:56:11;6.27;;;4.97;;
8293;SDS011;4185;41.506;24.938;2023-08-21T06:58:38;6.40;;;4.30;;
8293;SDS011;4185;41.506;24.938;2023-08-21T07:01:05;7.50;;;5.20;;
8293;SDS011;4185;41.506;24.938;2023-08-21T07:03:32;8.37;;;4.93;;
8293;SDS011;4185;41.506;24.938;2023-08-21T07:05:59;5.83;;;5.23;;
8293;SDS011;4185;41.506;24.938;2023-08-21T07:08:28;6.03;;;4.47;;
8293;SDS011;4185;41.506;24.938;2023-08-21T07:10:55;5.23;;;4.70;;
8293;SDS011;4185;41.506;24.938;2023-08-21T07:13:22;6.15;;;5.00;;
8293;SDS011;4185;41.506;24.938;2023-08-21T07:15:49;5.70;;;5.10;;
8293;SDS011;4185;41.506;24.938;2023-08-21T07:18:20;5.50;;;4.90;;
8293;SDS011;4185;41.506;24.938;2023-08-21T07:20:46;5.32;;;4.82;;
8293;SDS011;4185;41.506;24.938;2023-08-21T07:23:13;7.97;;;4.93;;
8293;SDS011;4185;41.506;24.938;2023-08-21T07:25:42;6.28;;;5.00;;
8293;SDS011;4185;41.506;24.938;2023-08-21T07:28:09;7.90;;;4.90;;
8293;SDS011;4185;41.506;24.938;2023-08-21T07:30:36;6.18;;;4.55;;
8293;SDS011;4185;41.506;24.938;2023-08-21T07:33:03;6.82;;;4.32;;
8293;SDS011;4185;41.506;24.938;2023-08-21T07:35:31;5.32;;;4.53;;
8293;SDS011;4185;41.506;24.938;2023-08-21T07:37:58;7.18;;;4.25;;
8293;SDS011;4185;41.506;24.938;2023-08-21T07:40:25;5.20;;;4.18;;
8293;SDS011;4185;41.506;24.938;2023-08-21T07:42:53;6.65;;;4.35;;
8293;SDS011;4185;41.506;24.938;2023-08-21T07:45:20;7.75;;;4.22;;
8293;SDS011;4185;41.506;24.938;2023-08-21T07:47:47;5.97;;;4.05;;
8293;SDS011;4185;41.506;24.938;2023-08-21T07:50:14;6.88;;;4.40;;
8293;SDS011;4185;41.506;24.938;2023-08-21T07:52:42;6.82;;;5.40;;
8293;SDS011;4185;41.506;24.938;2023-08-21T07:55:08;5.07;;;3.95;;
8293;SDS011;4185;41.506;24.938;2023-08-21T07:57:35;4.88;;;3.95;;
8293;SDS011;4185;41.506;24.938;2023-08-21T08:00:04;5.80;;;4.18;;
8293;SDS011;4185;41.506;24.938;2023-08-21T08:02:33;4.88;;;3.70;;
8293;SDS011;4185;41.506;24.938;2023-08-21T08:05:00;4.65;;;3.53;;
8293;SDS011;4185;41.506;24.938;2023-08-21T08:07:27;4.65;;;3.25;;
8293;SDS011;4185;41.506;24.938;2023-08-21T08:09:54;7.20;;;4.25;;
8293;SDS011;4185;41.506;24.938;2023-08-21T08:12:20;7.20;;;3.50;;
8293;SDS011;4185;41.506;24.938;2023-08-21T08:14:47;3.80;;;3.35;;
8293;SDS011;4185;41.506;24.938;2023-08-21T08:17:15;4.45;;;3.22;;
8293;SDS011;4185;41.506;24.938;2023-08-21T08:19:42;3.72;;;3.42;;
8293;SDS011;4185;41.506;24.938;2023-08-21T08:22:09;4.65;;;3.30;;
8293;SDS011;4185;41.506;24.938;2023-08-21T08:24:36;5.57;;;3.30;;
8293;SDS011;4185;41.506;24.938;2023-08-21T08:27:02;6.00;;;3.60;;
8293;SDS011;4185;41.506;24.938;2023-08-21T08:29:29;5.00;;;3.58;;
8293;SDS011;4185;41.506;24.938;2023-08-21T08:31:56;5.78;;;3.17;;
8293;SDS011;4185;41.506;24.938;2023-08-21T08:34:24;4.25;;;2.90;;
8293;SDS011;4185;41.506;24.938;2023-08-21T08:36:51;3.28;;;2.67;;
8293;SDS011;4185;41.506;24.938;2023-08-21T08:39:18;4.45;;;3.08;;
8293;SDS011;4185;41.506;24.938;2023-08-21T08:41:48;4.85;;;3.10;;
8293;SDS011;4185;41.506;24.938;2023-08-21T08:44:20;4.40;;;3.00;;
8293;SDS011;4185;41.506;24.938;2023-08-21T08:46:51;3.45;;;2.88;;
8293;SDS011;4185;41.506;24.938;2023-08-21T08:49:18;5.13;;;2.45;;
8293;SDS011;4185;41.506;24.938;2023-08-21T08:51:48;2.90;;;2.50;;
8293;SDS011;4185;41.506;24.938;2023-08-21T08:54:16;5.55;;;2.90;;
8293;SDS011;4185;41.506;24.938;2023-08-21T08:56:44;4.45;;;2.60;;
8293;SDS011;4185;41.506;24.938;2023-08-21T08:59:11;4.60;;;2.78;;
8293;SDS011;4185;41.506;24.938;2023-08-21T09:01:39;3.63;;;2.50;;
8293;SDS011;4185;41.506;24.938;2023-08-21T09:04:06;4.05;;;2.75;;
8293;SDS011;4185;41.506;24.938;2023-08-21T09:06:33;6.20;;;3.10;;
8293;SDS011;4185;41.506;24.938;2023-08-21T09:09:02;4.90;;;2.83;;
8293;SDS011;4185;41.506;24.938;2023-08-21T09:11:29;3.78;;;2.97;;
8293;SDS011;4185;41.506;24.938;2023-08-21T09:13:56;5.97;;;3.00;;
8293;SDS011;4185;41.506;24.938;2023-08-21T09:16:24;4.47;;;3.05;;
8293;SDS011;4185;41.506;24.938;2023-08-21T09:18:52;4.57;;;3.00;;
8293;SDS011;4185;41.506;24.938;2023-08-21T09:21:21;4.10;;;2.78;;
8293;SDS011;4185;41.506;24.938;2023-08-21T09:23:51;6.55;;;3.25;;
8293;SDS011;4185;41.506;24.938;2023-08-21T09:26:24;4.28;;;3.08;;
8293;SDS011;4185;41.506;24.938;2023-08-21T09:28:52;5.00;;;2.80;;
8293;SDS011;4185;41.506;24.938;2023-08-21T09:31:21;13.20;;;3.00;;
8293;SDS011;4185;41.506;24.938;2023-08-21T09:33:54;6.05;;;3.95;;
8293;SDS011;4185;41.506;24.938;2023-08-21T09:36:22;3.60;;;2.72;;
8293;SDS011;4185;41.506;24.938;2023-08-21T09:38:50;4.20;;;3.03;;
8293;SDS011;4185;41.506;24.938;2023-08-21T09:41:18;3.25;;;2.95;;
8293;SDS011;4185;41.506;24.938;2023-08-21T09:43:47;3.60;;;3.30;;
8293;SDS011;4185;41.506;24.938;2023-08-21T09:46:14;6.30;;;3.45;;
8293;SDS011;4185;41.506;24.938;2023-08-21T09:48:43;4.93;;;3.10;;
8293;SDS011;4185;41.506;24.938;2023-08-21T09:51:10;6.68;;;3.40;;
8293;SDS011;4185;41.506;24.938;2023-08-21T09:53:37;4.78;;;3.10;;
8293;SDS011;4185;41.506;24.938;2023-08-21T09:56:05;5.90;;;3.35;;
8293;SDS011;4185;41.506;24.938;2023-08-21T09:58:33;4.68;;;2.90;;
8293;SDS011;4185;41.506;24.938;2023-08-21T10:01:04;6.93;;;2.90;;
8293;SDS011;4185;41.506;24.938;2023-08-21T10:03:36;3.85;;;3.08;;
8293;SDS011;4185;41.506;24.938;2023-08-21T10:06:05;6.28;;;3.15;;
8293;SDS011;4185;41.506;24.938;2023-08-21T10:08:33;3.80;;;2.75;;
8293;SDS011;4185;41.506;24.938;2023-08-21T10:11:05;4.00;;;3.22;;
8293;SDS011;4185;41.506;24.938;2023-08-21T10:13:33;4.13;;;2.83;;
8293;SDS011;4185;41.506;24.938;2023-08-21T10:16:03;5.97;;;3.65;;
8293;SDS011;4185;41.506;24.938;2023-08-21T10:18:31;4.68;;;3.30;;
8293;SDS011;4185;41.506;24.938;2023-08-21T10:21:12;5.97;;;3.10;;
8293;SDS011;4185;41.506;24.938;2023-08-21T10:23:41;5.15;;;3.05;;
8293;SDS011;4185;41.506;24.938;2023-08-21T10:26:09;6.70;;;3.60;;
8293;SDS011;4185;41.506;24.938;2023-08-21T10:28:43;5.38;;;3.38;;
8293;SDS011;4185;41.506;24.938;2023-08-21T10:31:28;4.18;;;2.88;;
8293;SDS011;4185;41.506;24.938;2023-08-21T10:33:56;3.45;;;2.78;;
8293;SDS011;4185;41.506;24.938;2023-08-21T10:36:36;4.38;;;3.00;;
8293;SDS011;4185;41.506;24.938;2023-08-21T10:39:27;4.15;;;3.40;;
8293;SDS011;4185;41.506;24.938;2023-08-21T10:41:56;4.40;;;3.08;;
8293;SDS011;4185;41.506;24.938;2023-08-21T10:44:33;6.13;;;3.20;;
8293;SDS011;4185;41.506;24.938;2023-08-21T10:47:15;4.15;;;2.72;;
8293;SDS011;4185;41.506;24.938;2023-08-21T10:49:43;5.45;;;3.58;;
8293;SDS011;4185;41.506;24.938;2023-08-21T10:52:11;4.40;;;3.20;;
8293;SDS011;4185;41.506;24.938;2023-08-21T10:54:45;5.10;;;3.25;;
8293;SDS011;4185;41.506;24.938;2023-08-21T10:57:13;3.42;;;3.00;;
8293;SDS011;4185;41.506;24.938;2023-08-21T10:59:49;6.70;;;3.22;;
8293;SDS011;4185;41.506;24.938;2023-08-21T11:02:21;4.40;;;3.00;;
8293;SDS011;4185;41.506;24.938;2023-08-21T11:04:48;3.30;;;3.00;;
8293;SDS011;4185;41.506;24.938;2023-08-21T11:07:15;4.28;;;3.17;;
8293;SDS011;4185;41.506;24.938;2023-08-21T11:09:43;4.32;;;3.22;;
8293;SDS011;4185;41.506;24.938;2023-08-21T11:12:10;3.95;;;3.38;;
8293;SDS011;4185;41.506;24.938;2023-08-21T11:14:39;7.47;;;3.15;;
8293;SDS011;4185;41.506;24.938;2023-08-21T11:17:06;4.63;;;3.50;;
8293;SDS011;4185;41.506;24.938;2023-08-21T11:19:35;6.07;;;3.55;;
8293;SDS011;4185;41.506;24.938;2023-08-21T11:22:03;7.57;;;3.53;;
8293;SDS011;4185;41.506;24.938;2023-08-21T11:24:40;6.88;;;3.40;;
8293;SDS011;4185;41.506;24.938;2023-08-21T11:27:08;4.57;;;3.45;;
8293;SDS011;4185;41.506;24.938;2023-08-21T11:29:37;6.22;;;3.88;;
8293;SDS011;4185;41.506;24.938;2023-08-21T11:32:07;4.47;;;3.78;;
8293;SDS011;4185;41.506;24.938;2023-08-21T11:34:36;5.97;;;3.83;;
8293;SDS011;4185;41.506;24.938;2023-08-21T11:37:04;4.35;;;3.50;;
8293;SDS011;4185;41.506;24.938;2023-08-21T11:39:44;4.03;;;3.60;;
8293;SDS011;4185;41.506;24.938;2023-08-21T11:42:12;5.95;;;5.43;;
8293;SDS011;4185;41.506;24.938;2023-08-21T11:44:40;4.63;;;4.03;;
8293;SDS011;4185;41.506;24.938;2023-08-21T11:47:10;5.72;;;4.68;;
8293;SDS011;4185;41.506;24.938;2023-08-21T11:49:40;4.57;;;4.00;;
8293;SDS011;4185;41.506;24.938;2023-08-21T11:52:07;7.65;;;4.45;;
8293;SDS011;4185;41.506;24.938;2023-08-21T11:54:35;6.60;;;4.35;;
8293;SDS011;4185;41.506;24.938;2023-08-21T11:57:06;5.93;;;4.45;;
8293;SDS011;4185;41.506;24.938;2023-08-21T11:59:34;5.47;;;4.43;;
8293;SDS011;4185;41.506;24.938;2023-08-21T12:02:07;6.15;;;4.18;;
8293;SDS011;4185;41.506;24.938;2023-08-21T12:04:36;6.53;;;4.13;;
8293;SDS011;4185;41.506;24.938;2023-08-21T12:07:05;8.68;;;4.60;;
8293;SDS011;4185;41.506;24.938;2023-08-21T12:09:32;4.97;;;4.18;;
8293;SDS011;4185;41.506;24.938;2023-08-21T12:11:59;4.80;;;4.40;;
8293;SDS011;4185;41.506;24.938;2023-08-21T12:14:27;5.10;;;4.63;;
8293;SDS011;4185;41.506;24.938;2023-08-21T12:16:55;4.93;;;3.88;;
8293;SDS011;4185;41.506;24.938;2023-08-21T12:19:22;6.75;;;3.95;;
8293;SDS011;4185;41.506;24.938;2023-08-21T12:21:50;6.65;;;4.07;;
8293;SDS011;4185;41.506;24.938;2023-08-21T12:24:19;4.80;;;3.60;;
8293;SDS011;4185;41.506;24.938;2023-08-21T12:26:46;5.05;;;3.75;;
8293;SDS011;4185;41.506;24.938;2023-08-21T12:29:13;5.30;;;3.78;;
8293;SDS011;4185;41.506;24.938;2023-08-21T12:31:40;7.15;;;3.47;;
8293;SDS011;4185;41.506;24.938;2023-08-21T12:34:07;6.35;;;3.92;;
8293;SDS011;4185;41.506;24.938;2023-08-21T12:36:34;3.53;;;3.08;;
8293;SDS011;4185;41.506;24.938;2023-08-21T12:39:02;3.60;;;3.30;;
8293;SDS011;4185;41.506;24.938;2023-08-21T12:41:31;4.20;;;3.28;;
8293;SDS011;4185;41.506;24.938;2023-08-21T12:43:59;5.97;;;3.60;;
8293;SDS011;4185;41.506;24.938;2023-08-21T12:46:26;5.32;;;3.70;;
8293;SDS011;4185;41.506;24.938;2023-08-21T12:48:54;6.07;;;3.90;;
8293;SDS011;4185;41.506;24.938;2023-08-21T12:51:21;4.45;;;3.78;;
8293;SDS011;4185;41.506;24.938;2023-08-21T12:53:48;4.90;;;3.72;;
8293;SDS011;4185;41.506;24.938;2023-08-21T12:56:16;7.15;;;3.88;;
8293;SDS011;4185;41.506;24.938;2023-08-21T12:58:45;8.23;;;4.10;;
8293;SDS011;4185;41.506;24.938;2023-08-21T13:01:12;3.95;;;3.58;;
8293;SDS011;4185;41.506;24.938;2023-08-21T13:03:43;7.43;;;4.25;;
8293;SDS011;4185;41.506;24.938;2023-08-21T13:06:11;4.70;;;4.07;;
8293;SDS011;4185;41.506;24.938;2023-08-21T13:08:38;8.82;;;3.80;;
8293;SDS011;4185;41.506;24.938;2023-08-21T13:11:05;5.18;;;3.88;;
8293;SDS011;4185;41.506;24.938;2023-08-21T13:13:32;6.47;;;3.75;;
8293;SDS011;4185;41.506;24.938;2023-08-21T13:16:01;8.80;;;4.18;;
8293;SDS011;4185;41.506;24.938;2023-08-21T13:18:28;4.07;;;3.55;;
8293;SDS011;4185;41.506;24.938;2023-08-21T13:20:55;4.38;;;3.97;;
8293;SDS011;4185;41.506;24.938;2023-08-21T13:23:22;4.82;;;3.35;;
8293;SDS011;4185;41.506;24.938;2023-08-21T13:25:49;3.75;;;3.03;;
8293;SDS011;4185;41.506;24.938;2023-08-21T13:28:16;4.20;;;3.38;;
8293;SDS011;4185;41.506;24.938;2023-08-21T13:30:43;4.65;;;3.38;;
8293;SDS011;4185;41.506;24.938;2023-08-21T13:33:13;6.78;;;3.70;;
8293;SDS011;4185;41.506;24.938;2023-08-21T13:35:43;4.70;;;3.58;;
8293;SDS011;4185;41.506;24.938;2023-08-21T13:38:10;4.82;;;3.20;;
8293;SDS011;4185;41.506;24.938;2023-08-21T13:40:37;7.78;;;3.75;;
8293;SDS011;4185;41.506;24.938;2023-08-21T13:43:03;8.10;;;3.70;;
8293;SDS011;4185;41.506;24.938;2023-08-21T13:45:32;5.45;;;3.78;;
8293;SDS011;4185;41.506;24.938;2023-08-21T13:47:59;5.22;;;3.53;;
8293;SDS011;4185;41.506;24.938;2023-08-21T13:50:29;4.88;;;3.58;;
8293;SDS011;4185;41.506;24.938;2023-08-21T13:52:56;5.95;;;3.92;;
8293;SDS011;4185;41.506;24.938;2023-08-21T13:55:23;3.70;;;3.30;;
8293;SDS011;4185;41.506;24.938;2023-08-21T13:57:50;5.00;;;4.07;;
8293;SDS011;4185;41.506;24.938;2023-08-21T14:00:17;5.05;;;3.80;;
8293;SDS011;4185;41.506;24.938;2023-08-21T14:02:44;9.50;;;4.07;;
8293;SDS011;4185;41.506;24.938;2023-08-21T14:05:11;7.35;;;4.03;;
8293;SDS011;4185;41.506;24.938;2023-08-21T14:07:39;7.00;;;3.90;;
8293;SDS011;4185;41.506;24.938;2023-08-21T14:10:06;7.05;;;4.10;;
8293;SDS011;4185;41.506;24.938;2023-08-21T14:12:33;4.85;;;4.25;;
8293;SDS011;4185;41.506;24.938;2023-08-21T14:15:01;4.97;;;3.80;;
8293;SDS011;4185;41.506;24.938;2023-08-21T14:17:28;6.60;;;3.92;;
8293;SDS011;4185;41.506;24.938;2023-08-21T14:19:55;8.05;;;4.30;;
8293;SDS011;4185;41.506;24.938;2023-08-21T14:22:22;4.65;;;4.15;;
8293;SDS011;4185;41.506;24.938;2023-08-21T14:24:50;8.93;;;4.13;;
8293;SDS011;4185;41.506;24.938;2023-08-21T14:27:17;5.05;;;3.85;;
8293;SDS011;4185;41.506;24.938;2023-08-21T14:29:44;11.90;;;4.82;;
8293;SDS011;4185;41.506;24.938;2023-08-21T14:32:11;7.00;;;4.22;;
8293;SDS011;4185;41.506;24.938;2023-08-21T14:34:38;6.30;;;4.80;;
8293;SDS011;4185;41.506;24.938;2023-08-21T14:37:05;10.77;;;4.80;;
8293;SDS011;4185;41.506;24.938;2023-08-21T14:39:32;6.53;;;4.63;;
8293;SDS011;4185;41.506;24.938;2023-08-21T14:42:00;7.70;;;5.75;;
8293;SDS011;4185;41.506;24.938;2023-08-21T14:44:27;7.53;;;4.78;;
8293;SDS011;4185;41.506;24.938;2023-08-21T14:46:54;7.45;;;6.20;;
8293;SDS011;4185;41.506;24.938;2023-08-21T14:49:23;10.45;;;5.05;;
8293;SDS011;4185;41.506;24.938;2023-08-21T14:51:50;5.30;;;4.53;;
8293;SDS011;4185;41.506;24.938;2023-08-21T14:54:17;5.72;;;4.30;;
8293;SDS011;4185;41.506;24.938;2023-08-21T14:56:44;9.90;;;4.80;;
8293;SDS011;4185;41.506;24.938;2023-08-21T14:59:13;8.25;;;4.80;;
8293;SDS011;4185;41.506;24.938;2023-08-21T15:01:40;6.22;;;5.57;;
8293;SDS011;4185;41.506;24.938;2023-08-21T15:04:07;5.57;;;4.80;;